createdAt,value
2017-10-04T00:00:00.305Z,3.60
2017-10-04T00:02:27.765Z,3.63
2017-10-04T00:04:55.217Z,3.43
2017-10-04T00:07:22.679Z,3.40
2017-10-04T00:09:50.175Z,4.47
2017-10-04T00:12:17.642Z,3.70
2017-10-04T00:14:45.101Z,3.30
2017-10-04T00:17:12.598Z,3.60
2017-10-04T00:19:40.069Z,4.40
2017-10-04T00:22:07.523Z,3.50
2017-10-04T00:24:35.009Z,3.30
2017-10-04T00:27:02.465Z,3.87
2017-10-04T00:29:29.925Z,3.33
2017-10-04T00:31:57.398Z,4.37
2017-10-04T00:34:25.242Z,3.20
2017-10-04T00:36:52.699Z,3.90
2017-10-04T00:39:20.538Z,3.00
2017-10-04T00:41:47.981Z,3.87
2017-10-04T00:44:15.439Z,3.80
2017-10-04T00:46:42.929Z,3.23
2017-10-04T00:49:10.386Z,3.57
2017-10-04T00:51:37.846Z,3.90
2017-10-04T00:54:05.339Z,4.17
2017-10-04T00:56:32.803Z,3.80
2017-10-04T00:59:00.265Z,3.10
2017-10-04T01:01:27.990Z,4.40
2017-10-04T01:03:55.838Z,3.30
2017-10-04T01:06:23.289Z,3.33
2017-10-04T01:08:50.766Z,3.50
2017-10-04T01:11:18.620Z,4.00
2017-10-04T01:13:46.062Z,4.03
2017-10-04T01:16:13.822Z,3.87
2017-10-04T01:18:41.267Z,2.93
2017-10-04T01:21:08.718Z,3.00
2017-10-04T01:23:36.387Z,3.33
2017-10-04T01:26:03.838Z,3.83
2017-10-04T01:28:31.313Z,4.20
2017-10-04T01:30:58.830Z,4.33
2017-10-04T01:33:26.265Z,3.50
2017-10-04T01:35:53.728Z,3.50
2017-10-04T01:38:21.227Z,3.50
2017-10-04T01:40:48.668Z,3.40
2017-10-04T01:43:16.122Z,3.70
2017-10-04T01:45:43.790Z,3.20
2017-10-04T01:48:11.253Z,3.60
2017-10-04T01:50:38.706Z,3.80
2017-10-04T01:53:06.457Z,4.00
2017-10-04T01:55:33.906Z,3.00
2017-10-04T01:58:01.366Z,4.40
2017-10-04T02:00:28.866Z,3.77
2017-10-04T02:02:56.714Z,3.53
2017-10-04T02:05:24.568Z,3.60
2017-10-04T02:07:52.134Z,4.03
2017-10-04T02:10:19.578Z,4.03
2017-10-04T02:12:47.030Z,3.40
2017-10-04T02:15:14.518Z,3.90
2017-10-04T02:17:42.367Z,3.73
2017-10-04T02:20:09.813Z,4.50
2017-10-04T02:22:37.282Z,4.93
2017-10-04T02:25:05.125Z,4.10
2017-10-04T02:27:32.582Z,3.30
2017-10-04T02:30:00.071Z,4.33
2017-10-04T02:32:28.634Z,2.70
2017-10-04T02:34:56.483Z,4.47
2017-10-04T02:37:23.939Z,3.43
2017-10-04T02:39:51.389Z,3.80
2017-10-04T02:42:19.145Z,4.00
2017-10-04T02:44:46.597Z,4.40
2017-10-04T02:47:14.047Z,4.43
2017-10-04T02:49:41.718Z,3.20
2017-10-04T02:52:09.165Z,3.77
2017-10-04T02:54:36.612Z,3.30
2017-10-04T02:57:04.262Z,3.70
2017-10-04T02:59:31.711Z,3.93
2017-10-04T03:01:59.162Z,4.10
2017-10-04T03:04:26.778Z,3.53
2017-10-04T03:06:54.225Z,3.50
2017-10-04T03:09:21.674Z,4.70
2017-10-04T03:11:49.125Z,4.20
2017-10-04T03:14:16.577Z,3.63
2017-10-04T03:16:44.058Z,4.13
2017-10-04T03:19:11.911Z,4.43
2017-10-04T03:21:39.365Z,4.10
2017-10-04T03:24:06.853Z,3.03
2017-10-04T03:26:34.303Z,3.80
2017-10-04T03:29:01.759Z,3.67
2017-10-04T03:31:29.630Z,2.90
2017-10-04T03:33:57.078Z,3.30
2017-10-04T03:36:24.531Z,3.50
2017-10-04T03:38:52.390Z,3.90
2017-10-04T03:41:20.233Z,4.13
2017-10-04T03:43:47.713Z,3.33
2017-10-04T03:46:15.553Z,3.13
2017-10-04T03:48:43.001Z,3.80
2017-10-04T03:51:10.462Z,3.53
2017-10-04T03:53:37.910Z,3.50
2017-10-04T03:56:05.368Z,4.10
2017-10-04T03:58:33.142Z,3.53
2017-10-04T04:01:00.584Z,3.33
2017-10-04T04:03:28.036Z,3.87
2017-10-04T04:05:55.692Z,3.63
2017-10-04T04:08:23.185Z,3.93
2017-10-04T04:10:51.026Z,3.57
2017-10-04T04:13:18.869Z,3.60
2017-10-04T04:15:46.321Z,3.67
2017-10-04T04:18:13.764Z,3.40
2017-10-04T04:20:41.217Z,3.87
2017-10-04T04:23:08.666Z,3.43
2017-10-04T04:25:36.146Z,3.47
2017-10-04T04:28:03.601Z,3.93
2017-10-04T04:30:31.054Z,4.33
2017-10-04T04:32:58.810Z,4.73
2017-10-04T04:35:26.253Z,4.33
2017-10-04T04:38:05.980Z,3.30
2017-10-04T04:40:33.446Z,4.50
2017-10-04T04:43:00.901Z,4.10
2017-10-04T04:45:28.393Z,3.83
2017-10-04T04:47:55.858Z,4.43
2017-10-04T04:50:23.306Z,3.83
2017-10-04T04:52:50.756Z,3.73
2017-10-04T04:55:18.205Z,4.20
2017-10-04T04:57:45.695Z,4.63
2017-10-04T05:00:13.542Z,3.97
2017-10-04T05:02:41.402Z,4.20
2017-10-04T05:05:08.854Z,4.23
2017-10-04T05:07:36.318Z,4.00
2017-10-04T05:10:03.778Z,4.80
2017-10-04T05:12:31.234Z,4.27
2017-10-04T05:14:59.100Z,5.10
2017-10-04T05:17:26.550Z,5.00
2017-10-04T05:19:53.999Z,4.90
2017-10-04T05:22:21.717Z,5.00
2017-10-04T05:24:49.169Z,5.47
2017-10-04T05:27:16.627Z,4.90
2017-10-04T05:29:44.098Z,5.20
2017-10-04T05:32:11.557Z,5.23
2017-10-04T05:34:39.017Z,5.00
2017-10-04T05:37:06.485Z,5.73
2017-10-04T05:39:33.933Z,5.93
2017-10-04T05:42:01.393Z,4.30
2017-10-04T05:44:28.861Z,4.70
2017-10-04T05:46:56.320Z,5.93
2017-10-04T05:49:23.769Z,5.43
2017-10-04T05:51:51.241Z,4.97
2017-10-04T05:54:19.089Z,4.97
2017-10-04T05:56:46.541Z,5.60
2017-10-04T05:59:14.193Z,5.07
2017-10-04T06:01:41.649Z,5.33
2017-10-04T06:04:09.101Z,5.97
2017-10-04T06:06:36.570Z,5.30
2017-10-04T06:09:04.026Z,5.93
2017-10-04T06:11:31.487Z,6.10
2017-10-04T06:13:58.935Z,5.27
2017-10-04T06:16:26.698Z,5.40
2017-10-04T06:18:54.149Z,4.80
2017-10-04T06:21:21.617Z,5.03
2017-10-04T06:23:49.115Z,5.90
2017-10-04T06:26:16.562Z,5.90
2017-10-04T06:28:44.013Z,4.90
2017-10-04T06:31:11.722Z,5.67
2017-10-04T06:33:39.178Z,6.03
2017-10-04T06:36:06.634Z,3.90
2017-10-04T06:38:34.122Z,4.50
2017-10-04T06:41:01.973Z,4.70
2017-10-04T06:43:29.426Z,7.00
2017-10-04T06:45:57.370Z,5.00
2017-10-04T06:48:24.847Z,4.67
2017-10-04T06:50:52.830Z,5.07
2017-10-04T06:53:20.683Z,5.03
2017-10-04T06:55:48.530Z,4.50
2017-10-04T06:58:16.018Z,4.60
2017-10-04T07:00:43.475Z,4.53
2017-10-04T07:03:11.329Z,4.43
2017-10-04T07:05:39.203Z,4.17
2017-10-04T07:08:07.045Z,4.33
2017-10-04T07:10:34.499Z,4.37
2017-10-04T07:13:02.563Z,4.40
2017-10-04T07:15:30.047Z,4.30
2017-10-04T07:17:57.937Z,4.20
2017-10-04T07:20:25.417Z,4.30
2017-10-04T07:22:52.870Z,3.63
2017-10-04T07:25:20.339Z,4.20
2017-10-04T07:27:48.210Z,4.13
2017-10-04T07:30:15.670Z,3.83
2017-10-04T07:32:43.117Z,4.43
2017-10-04T07:35:10.682Z,4.53
2017-10-04T07:37:38.142Z,4.70
2017-10-04T07:40:05.602Z,5.47
2017-10-04T07:42:33.083Z,4.57
2017-10-04T07:45:00.926Z,4.23
2017-10-04T07:47:28.783Z,4.43
2017-10-04T07:49:56.261Z,4.00
2017-10-04T07:52:24.109Z,5.40
2017-10-04T07:54:51.961Z,4.40
2017-10-04T07:57:19.453Z,4.40
2017-10-04T07:59:46.897Z,3.73
2017-10-04T08:02:14.740Z,4.20
2017-10-04T08:04:42.305Z,3.73
2017-10-04T08:07:10.156Z,4.40
2017-10-04T08:09:37.636Z,4.40
2017-10-04T08:12:05.878Z,4.60
2017-10-04T08:14:33.329Z,3.23
2017-10-04T08:17:00.785Z,3.97
2017-10-04T08:19:28.243Z,4.50
2017-10-04T08:21:55.693Z,3.37
2017-10-04T08:24:23.197Z,4.17
2017-10-04T08:26:50.654Z,4.10
2017-10-04T08:29:18.101Z,5.07
2017-10-04T08:31:45.994Z,4.40
2017-10-04T08:34:13.451Z,3.80
2017-10-04T08:36:40.907Z,3.80
2017-10-04T08:39:08.381Z,4.70
2017-10-04T08:41:35.837Z,3.70
2017-10-04T08:44:03.316Z,4.37
2017-10-04T08:46:30.798Z,4.50
2017-10-04T08:48:58.726Z,3.57
2017-10-04T08:51:26.185Z,4.40
2017-10-04T08:53:53.701Z,3.77
2017-10-04T08:56:21.157Z,3.50
2017-10-04T08:58:48.606Z,3.73
2017-10-04T09:01:16.111Z,3.30
2017-10-04T09:03:43.902Z,4.00
2017-10-04T09:06:13.665Z,4.67
2017-10-04T09:08:41.124Z,4.13
2017-10-04T09:11:08.691Z,4.10
2017-10-04T09:13:36.137Z,4.50
2017-10-04T09:16:03.605Z,3.27
2017-10-04T09:18:31.061Z,4.03
2017-10-04T09:20:58.514Z,4.40
2017-10-04T09:23:25.997Z,4.10
2017-10-04T09:25:53.840Z,4.63
2017-10-04T09:28:21.290Z,4.20
2017-10-04T09:30:48.785Z,3.77
2017-10-04T09:33:16.620Z,3.40
2017-10-04T09:35:44.484Z,4.27
2017-10-04T09:38:12.089Z,4.30
2017-10-04T09:40:39.542Z,5.37
2017-10-04T09:43:06.990Z,3.97
2017-10-04T09:45:34.473Z,4.20
2017-10-04T09:48:01.930Z,5.00
2017-10-04T09:50:29.382Z,4.00
2017-10-04T09:52:57.849Z,3.83
2017-10-04T09:55:25.301Z,4.30
2017-10-04T09:57:52.758Z,3.70
2017-10-04T10:00:20.323Z,3.40
2017-10-04T10:02:47.837Z,4.33
2017-10-04T10:05:16.725Z,3.90
2017-10-04T10:07:44.591Z,4.23
2017-10-04T10:10:12.446Z,4.37
2017-10-04T10:12:39.904Z,4.20
2017-10-04T10:15:07.755Z,6.30
2017-10-04T10:17:35.467Z,5.90
2017-10-04T10:20:02.765Z,4.50
2017-10-04T10:22:30.225Z,4.00
2017-10-04T10:24:57.678Z,4.20
2017-10-04T10:27:25.157Z,4.30
2017-10-04T10:29:53.005Z,4.13
2017-10-04T10:32:20.469Z,3.60
2017-10-04T10:34:48.377Z,3.70
2017-10-04T10:37:15.825Z,3.77
2017-10-04T10:39:43.287Z,3.83
2017-10-04T10:42:10.893Z,4.10
2017-10-04T10:44:38.342Z,4.27
2017-10-04T10:47:05.793Z,3.97
2017-10-04T10:49:33.255Z,4.63
2017-10-04T10:52:00.709Z,4.10
2017-10-04T10:54:28.290Z,4.07
2017-10-04T10:56:55.762Z,4.07
2017-10-04T10:59:23.209Z,3.97
2017-10-04T11:01:50.701Z,3.40
2017-10-04T11:04:19.156Z,4.60
2017-10-04T11:06:46.611Z,3.90
2017-10-04T11:09:14.110Z,3.67
2017-10-04T11:11:41.570Z,4.07
2017-10-04T11:14:09.025Z,3.90
2017-10-04T11:16:36.490Z,3.80
2017-10-04T11:19:04.342Z,3.90
2017-10-04T11:21:31.808Z,3.50
2017-10-04T11:23:59.282Z,3.90
2017-10-04T11:26:27.129Z,3.93
2017-10-04T11:28:54.715Z,4.23
2017-10-04T11:31:22.739Z,3.87
2017-10-04T11:33:50.202Z,4.40
2017-10-04T11:36:17.655Z,3.70
2017-10-04T11:38:45.128Z,4.00
2017-10-04T11:41:12.598Z,4.50
2017-10-04T11:43:40.498Z,4.27
2017-10-04T11:46:08.299Z,3.93
2017-10-04T11:48:35.750Z,4.07
2017-10-04T11:51:03.210Z,3.87
2017-10-04T11:53:30.695Z,3.30
2017-10-04T11:55:58.557Z,3.83
2017-10-04T11:58:26.394Z,4.10
2017-10-04T12:00:53.883Z,4.07
2017-10-04T12:03:21.733Z,3.70
2017-10-04T12:05:49.583Z,3.67
2017-10-04T12:08:17.213Z,3.50
2017-10-04T12:10:44.663Z,3.70
2017-10-04T12:13:12.122Z,3.90
2017-10-04T12:15:39.609Z,3.70
2017-10-04T12:18:07.066Z,3.87
2017-10-04T12:20:34.957Z,4.30
2017-10-04T12:23:02.801Z,3.20
2017-10-04T12:25:30.646Z,3.90
2017-10-04T12:27:58.217Z,3.57
2017-10-04T12:30:25.674Z,3.97
2017-10-04T12:32:53.139Z,4.13
2017-10-04T12:35:21.002Z,3.50
2017-10-04T12:37:48.846Z,3.50
2017-10-04T12:40:16.302Z,3.17
2017-10-04T12:42:43.919Z,3.67
2017-10-04T12:45:11.377Z,3.23
2017-10-04T12:47:38.833Z,3.30
2017-10-04T12:50:06.530Z,3.80
2017-10-04T12:52:33.986Z,3.30
2017-10-04T12:55:01.443Z,3.83
2017-10-04T12:57:28.951Z,3.73
2017-10-04T12:59:56.434Z,3.40
2017-10-04T13:02:23.893Z,4.13
2017-10-04T13:04:51.350Z,4.13
2017-10-04T13:07:19.130Z,4.47
2017-10-04T13:09:46.583Z,4.30
2017-10-04T13:12:14.035Z,4.20
2017-10-04T13:14:41.532Z,3.50
2017-10-04T13:17:08.994Z,3.67
2017-10-04T13:19:36.434Z,3.90
2017-10-04T13:22:04.314Z,3.50
2017-10-04T13:24:31.940Z,3.27
2017-10-04T13:26:59.865Z,3.60
2017-10-04T13:29:27.525Z,3.90
2017-10-04T13:31:55.461Z,4.07
2017-10-04T13:34:23.427Z,4.63
2017-10-04T13:36:50.899Z,3.73
2017-10-04T13:39:18.353Z,4.13
2017-10-04T13:41:45.822Z,3.60
2017-10-04T13:44:13.276Z,3.67
2017-10-04T13:46:40.758Z,3.40
2017-10-04T13:49:08.226Z,4.03
2017-10-04T13:51:35.680Z,4.40
2017-10-04T13:54:03.131Z,3.43
2017-10-04T13:56:30.635Z,3.67
2017-10-04T13:58:58.350Z,3.30
2017-10-04T14:01:25.816Z,3.40
2017-10-04T14:03:53.261Z,3.40
2017-10-04T14:06:21.138Z,3.20
2017-10-04T14:08:48.585Z,4.00
2017-10-04T14:11:16.036Z,5.00
2017-10-04T14:13:43.514Z,3.40
2017-10-04T14:16:11.362Z,3.70
2017-10-04T14:18:39.214Z,3.70
2017-10-04T14:21:06.723Z,4.43
2017-10-04T14:23:34.166Z,3.90
2017-10-04T14:26:01.626Z,3.57
2017-10-04T14:28:29.097Z,4.00
2017-10-04T14:30:56.554Z,3.30
2017-10-04T14:33:24.021Z,3.50
2017-10-04T14:35:51.501Z,3.60
2017-10-04T14:38:18.947Z,3.67
2017-10-04T14:40:46.413Z,3.50
2017-10-04T14:43:13.925Z,3.67
2017-10-04T14:45:41.388Z,3.73
2017-10-04T14:48:08.839Z,3.77
2017-10-04T14:50:36.339Z,3.40
2017-10-04T14:53:03.785Z,3.40
2017-10-04T14:55:31.241Z,2.90
2017-10-04T14:57:58.694Z,4.10
2017-10-04T15:00:26.154Z,3.90
2017-10-04T15:02:53.807Z,3.10
2017-10-04T15:05:21.266Z,3.40
2017-10-04T15:07:48.718Z,3.50
2017-10-04T15:10:16.190Z,3.83
2017-10-04T15:12:43.934Z,3.60
2017-10-04T15:15:11.416Z,3.40
2017-10-04T15:17:39.268Z,3.30
2017-10-04T15:20:06.745Z,3.53
2017-10-04T15:22:34.709Z,6.00
2017-10-04T15:25:02.559Z,3.17
2017-10-04T15:27:30.006Z,3.87
2017-10-04T15:29:57.490Z,4.10
2017-10-04T15:32:25.337Z,3.10
2017-10-04T15:34:53.204Z,3.10
2017-10-04T15:37:21.358Z,3.60
2017-10-04T15:39:48.814Z,3.50
2017-10-04T15:42:16.271Z,2.83
2017-10-04T15:44:43.763Z,2.80
2017-10-04T15:47:11.605Z,3.67
2017-10-04T15:49:39.454Z,3.23
2017-10-04T15:52:06.914Z,3.83
2017-10-04T15:54:34.630Z,3.60
2017-10-04T15:57:02.088Z,3.50
2017-10-04T15:59:29.541Z,3.50
2017-10-04T16:01:57.033Z,4.13
2017-10-04T16:04:24.490Z,4.33
2017-10-04T16:06:51.994Z,3.13
2017-10-04T16:09:19.462Z,3.77
2017-10-04T16:11:46.927Z,3.77
2017-10-04T16:14:14.380Z,4.00
2017-10-04T16:16:42.065Z,3.43
2017-10-04T16:19:09.546Z,3.80
2017-10-04T16:21:36.994Z,3.73
2017-10-04T16:24:04.494Z,3.90
2017-10-04T16:26:31.954Z,3.60
2017-10-04T16:28:59.413Z,3.10
2017-10-04T16:31:27.104Z,3.00
2017-10-04T16:33:54.547Z,3.13
2017-10-04T16:36:22.010Z,3.37
2017-10-04T16:38:49.497Z,3.67
2017-10-04T16:41:17.348Z,3.60
2017-10-04T16:43:44.810Z,3.57
2017-10-04T16:46:12.312Z,3.20
2017-10-04T16:48:39.765Z,2.80
2017-10-04T16:51:07.210Z,3.37
2017-10-04T16:53:34.691Z,3.20
2017-10-04T16:56:02.145Z,4.57
2017-10-04T16:58:29.599Z,3.63
2017-10-04T17:00:57.593Z,6.57
2017-10-04T17:03:25.058Z,4.37
2017-10-04T17:05:52.522Z,3.90
2017-10-04T17:08:19.982Z,3.70
2017-10-04T17:10:47.837Z,4.13
2017-10-04T17:13:15.316Z,3.83
2017-10-04T17:15:43.159Z,3.40
2017-10-04T17:18:10.615Z,4.80
2017-10-04T17:20:38.873Z,4.10
2017-10-04T17:23:06.339Z,4.10
2017-10-04T17:25:34.193Z,5.63
2017-10-04T17:28:01.638Z,4.60
2017-10-04T17:30:29.095Z,4.07
2017-10-04T17:32:56.572Z,4.60
2017-10-04T17:35:24.045Z,4.23
2017-10-04T17:37:51.903Z,3.97
2017-10-04T17:40:19.755Z,4.17
2017-10-04T17:42:47.238Z,3.83
2017-10-04T17:45:14.689Z,4.20
2017-10-04T17:47:42.138Z,3.80
2017-10-04T17:50:10.274Z,5.30
2017-10-04T17:52:37.721Z,5.20
2017-10-04T17:55:05.183Z,4.60
2017-10-04T17:57:32.673Z,4.27
2017-10-04T18:00:00.531Z,5.50
2017-10-04T18:02:28.400Z,4.30
2017-10-04T18:04:56.297Z,3.80
2017-10-04T18:07:23.753Z,3.87
2017-10-04T18:09:51.210Z,4.80
2017-10-04T18:12:18.698Z,5.27
2017-10-04T18:14:46.165Z,5.30
2017-10-04T18:17:13.646Z,5.47
2017-10-04T18:19:41.157Z,5.20
2017-10-04T18:22:09.493Z,4.40
2017-10-04T18:24:37.740Z,5.27
2017-10-04T18:27:05.791Z,5.17
2017-10-04T18:29:33.357Z,4.90
2017-10-04T18:32:00.954Z,4.47
2017-10-04T18:34:28.542Z,4.40
2017-10-04T18:36:56.193Z,5.03
2017-10-04T18:39:23.947Z,5.73
2017-10-04T18:41:51.841Z,4.73
2017-10-04T18:44:19.508Z,4.30
2017-10-04T18:46:47.830Z,5.17
2017-10-04T18:49:15.554Z,4.07
2017-10-04T18:51:43.435Z,3.87
2017-10-04T18:54:11.790Z,4.30
2017-10-04T18:56:40.558Z,3.87
2017-10-04T18:59:08.989Z,4.50
2017-10-04T19:01:37.558Z,4.20
2017-10-04T19:04:05.993Z,5.87
2017-10-04T19:06:34.480Z,4.10
2017-10-04T19:09:03.370Z,3.63
2017-10-04T19:11:32.139Z,4.40
2017-10-04T19:14:00.553Z,4.17
2017-10-04T19:16:29.061Z,4.73
2017-10-04T19:18:57.537Z,5.20
2017-10-04T19:21:25.786Z,4.33
2017-10-04T19:23:54.632Z,4.47
2017-10-04T19:26:22.890Z,4.90
2017-10-04T19:28:51.527Z,4.60
2017-10-04T19:31:19.884Z,5.90
2017-10-04T19:33:48.430Z,6.00
2017-10-04T19:36:17.036Z,5.40
2017-10-04T19:38:45.448Z,5.63
2017-10-04T19:41:14.052Z,7.73
2017-10-04T19:43:42.883Z,5.90
2017-10-04T19:46:11.260Z,5.63
2017-10-04T19:48:39.566Z,5.27
2017-10-04T19:51:07.889Z,5.20
2017-10-04T19:53:36.088Z,5.43
2017-10-04T19:56:04.325Z,5.33
2017-10-04T19:58:32.111Z,5.10
2017-10-04T20:01:00.644Z,5.57
2017-10-04T20:03:28.475Z,5.33
2017-10-04T20:05:56.238Z,5.23
2017-10-04T20:08:23.907Z,5.60
2017-10-04T20:10:51.655Z,5.93
2017-10-04T20:13:19.437Z,5.40
2017-10-04T20:15:47.163Z,5.90
2017-10-04T20:18:14.837Z,6.10
2017-10-04T20:20:42.420Z,5.40
2017-10-04T20:23:10.319Z,5.60
2017-10-04T20:25:37.983Z,5.27
2017-10-04T20:28:05.444Z,6.10
2017-10-04T20:30:33.007Z,5.60
2017-10-04T20:33:00.511Z,5.37
2017-10-04T20:35:28.023Z,6.13
2017-10-04T20:37:55.506Z,4.77
2017-10-04T20:40:22.973Z,5.63
2017-10-04T20:42:50.466Z,5.33
2017-10-04T20:45:18.321Z,4.43
2017-10-04T20:47:46.169Z,4.90
2017-10-04T20:50:13.658Z,4.90
2017-10-04T20:52:41.732Z,5.23
2017-10-04T20:55:09.202Z,4.90
2017-10-04T20:57:36.675Z,6.30
2017-10-04T21:00:04.259Z,4.70
2017-10-04T21:02:31.707Z,4.17
2017-10-04T21:04:59.172Z,5.07
2017-10-04T21:07:26.665Z,4.90
2017-10-04T21:09:54.118Z,4.90
2017-10-04T21:12:21.589Z,4.80
2017-10-04T21:14:49.281Z,3.97
2017-10-04T21:17:16.746Z,4.60
2017-10-04T21:19:44.206Z,5.07
2017-10-04T21:22:11.676Z,4.23
2017-10-04T21:24:39.343Z,5.30
2017-10-04T21:27:07.197Z,4.50
2017-10-04T21:29:35.135Z,5.10
2017-10-04T21:32:02.599Z,5.60
2017-10-04T21:34:30.051Z,4.23
2017-10-04T21:36:57.824Z,4.07
2017-10-04T21:39:25.294Z,3.50
2017-10-04T21:41:53.144Z,3.70
2017-10-04T21:44:20.598Z,3.53
2017-10-04T21:46:48.051Z,3.87
2017-10-04T21:49:15.628Z,2.83
2017-10-04T21:51:43.482Z,3.60
2017-10-04T21:54:10.929Z,3.30
2017-10-04T21:56:38.410Z,3.00
2017-10-04T21:59:06.276Z,3.23
2017-10-04T22:01:33.743Z,3.70
2017-10-04T22:04:01.256Z,3.60
2017-10-04T22:06:28.719Z,3.07
2017-10-04T22:08:56.177Z,4.30
2017-10-04T22:11:23.658Z,3.60
2017-10-04T22:13:51.501Z,4.10
2017-10-04T22:16:19.361Z,4.20
2017-10-04T22:18:47.122Z,3.27
2017-10-04T22:21:14.662Z,4.20
2017-10-04T22:23:42.134Z,3.93
2017-10-04T22:26:10.034Z,4.17
2017-10-04T22:28:37.486Z,4.10
2017-10-04T22:31:04.941Z,3.57
2017-10-04T22:33:32.790Z,4.17
2017-10-04T22:36:00.650Z,4.13
2017-10-04T22:38:28.399Z,3.87
2017-10-04T22:40:55.899Z,4.50
2017-10-04T22:43:23.349Z,4.07
2017-10-04T22:45:50.801Z,4.10
2017-10-04T22:48:18.620Z,3.17
2017-10-04T22:50:46.085Z,3.67
2017-10-04T22:53:13.529Z,3.23
2017-10-04T22:55:41.021Z,3.17
2017-10-04T22:58:08.874Z,3.67
2017-10-04T23:00:36.718Z,2.70
2017-10-04T23:03:04.301Z,2.80
2017-10-04T23:05:32.143Z,2.37
2017-10-04T23:07:59.594Z,2.70
2017-10-04T23:10:27.066Z,2.20
2017-10-04T23:12:55.126Z,2.50
2017-10-04T23:15:22.575Z,2.70
2017-10-04T23:17:50.026Z,2.80
2017-10-04T23:20:17.477Z,2.43
2017-10-04T23:22:45.138Z,2.20
2017-10-04T23:25:12.591Z,1.83
2017-10-04T23:27:40.041Z,2.13
2017-10-04T23:30:07.618Z,1.47
2017-10-04T23:32:35.075Z,2.33
2017-10-04T23:35:02.522Z,1.70
2017-10-04T23:37:30.006Z,2.07
2017-10-04T23:39:57.853Z,1.90
2017-10-04T23:42:25.297Z,2.07
2017-10-04T23:44:53.157Z,2.03
2017-10-04T23:47:20.618Z,1.83
2017-10-04T23:49:48.074Z,1.80
2017-10-04T23:52:15.570Z,1.70
2017-10-04T23:54:43.020Z,1.97
2017-10-04T23:57:10.470Z,1.70
2017-10-04T23:59:38.366Z,1.77
